American Canyon, CA

7:01 PM PDT on September 14, 2014 (GMT -0700)
Federal Terrace, VSFCD | Change Station
CLOSE
Current Station
Personal Weather Station
Location: Vallejo, CA
Elevation: 34 ft
Nearby Weather Stations

Elev 34 ft 38.13 °N, 122.27 °W | Updated 11 minutes ago

Clear
Clear
74.3 °F
Feels Like 77 °F
N
3.0
Wind Variable Wind from SW
Gusts 8.0 mph

Today
High -- | Low -- °F
--% Chance of Precip.
Yesterday
High -- | Low -- °F
Precip. -- in
6:49 AM 7:18 PM
Waning Gibbous, 60% visible
Pressure 29.75 in
Visibility 10.0 miles
Clouds Clear
Heat Index 77 °F
Dew Point 59 °F
Humidity 60%
Rainfall 0.00 in
Snow Depth 0 in , 0 in , 0 in
UV 0.0 out of 12
Pollen 6.20 out of 12
Air Quality Not available.
Flu Activity Not available.
METAR KAPC 150154Z AUTO 18007KT 10SM CLR 22/14 A2978 RMK AO2 SLP075 T02220144

More Conditions Fewer Conditions

Pressure 29.75 in
Visibility 10.0 miles
Clouds Clear
Heat Index 77 °F
Dew Point 59 °F
Humidity 60%
Rainfall 0.00 in
Snow Depth 0 in , 0 in , 0 in
UV 0.0 out of 12
Pollen 6.20 out of 12
Air Quality Not available.
Flu Activity Not available.
METAR KAPC 150154Z AUTO 18007KT 10SM CLR 22/14 A2978 RMK AO2 SLP075 T02220144

More Conditions Fewer Conditions

10-Day Weather Forecast

Almanac

Astronomy

Sep. 14, 2014 Rise Set
Actual Time 6:49 AM PDT 7:18 PM PDT
Civil Twilight 6:23 AM PDT 7:44 PM PDT
Nautical Twilight 5:52 AM PDT 8:15 PM PDT
Astronomical Twilight 5:20 AM PDT 8:47 PM PDT
Moon 11:20 PM PDT (9/14) 12:56 PM PDT (9/14)
Length of Visible Light 13h 21m
Length of Day
12h 28m
Tomorrow will be 2m 25s shorter.
Waning Gibbous, 60% of the Moon is Illuminated
Today
Waning Gibbous
Sep 15
Last Quarter
Sep 24
New
Oct 1
First Quarter
Oct 8
Full

Today's Extremes

State Highs State Lows

Community

WunderPhotos

Upload Photos

1,753,371 photos uploaded!

Nearby

Air Quality

  Air Quality AQ Index Pollutant
Yesterday Good
PM2.5
Yesterday Good
OZONE
Sunday Moderate
PM2.5
Monday Good
PM2.5
Tuesday Good
PM2.5
Wednesday Good
PM2.5
Thursday Good
PM2.5
Friday Good
PM2.5

Snow Depth

Station Depth Elevation
Leavitt Meadows 0 in 7200 ft
Summit Meadow 0 in 9122 ft
Spratt Creek 0 in 6200 ft
Adin Mountain 0 in 6200 ft
Monitor Pass 0 in 8350 ft

Earthquake Activity

City Distance Mag. Time & Date
Covelo, California 119 miles 3.5 1:17 PM PDT
2014-09-14
Cobb, California 54 miles 2.8 11:07 AM PDT
2014-09-14
Ridgemark, California 115 miles 2.6 12:44 PM PDT
2014-09-12
Gonzales, California 121 miles 2.6 11:50 AM PDT
2014-09-11
Minimum magnitude displayed is 2.5.

Coastal Water Temperatures

Place Temperature
San Francisco, CA 64.9 °F
Richmond, CA 66.9 °F
Port Chicago, CA 70.0 °F

Nearby Weather Stations